sensor_id;sensor_type;location;lat;lon;timestamp;P1;durP1;ratioP1;P2;durP2;ratioP2
3941;SDS011;1985;48.592;8.850;2024-03-07T00:02:18;51.92;;;23.65;;
3941;SDS011;1985;48.592;8.850;2024-03-07T00:04:44;52.17;;;24.15;;
3941;SDS011;1985;48.592;8.850;2024-03-07T00:07:10;48.53;;;23.40;;
3941;SDS011;1985;48.592;8.850;2024-03-07T00:09:36;48.53;;;23.23;;
3941;SDS011;1985;48.592;8.850;2024-03-07T00:12:02;51.40;;;23.10;;
3941;SDS011;1985;48.592;8.850;2024-03-07T00:14:28;46.15;;;23.60;;
3941;SDS011;1985;48.592;8.850;2024-03-07T00:16:54;49.95;;;23.48;;
3941;SDS011;1985;48.592;8.850;2024-03-07T00:19:21;52.60;;;25.02;;
3941;SDS011;1985;48.592;8.850;2024-03-07T00:21:47;48.42;;;25.23;;
3941;SDS011;1985;48.592;8.850;2024-03-07T00:24:13;52.90;;;24.05;;
3941;SDS011;1985;48.592;8.850;2024-03-07T00:26:41;50.75;;;24.98;;
3941;SDS011;1985;48.592;8.850;2024-03-07T00:29:07;53.38;;;23.60;;
3941;SDS011;1985;48.592;8.850;2024-03-07T00:31:32;49.53;;;23.47;;
3941;SDS011;1985;48.592;8.850;2024-03-07T00:33:58;49.33;;;23.73;;
3941;SDS011;1985;48.592;8.850;2024-03-07T00:36:24;49.33;;;23.75;;
3941;SDS011;1985;48.592;8.850;2024-03-07T00:38:51;48.70;;;23.98;;
3941;SDS011;1985;48.592;8.850;2024-03-07T00:41:17;56.35;;;24.58;;
3941;SDS011;1985;48.592;8.850;2024-03-07T00:43:42;44.80;;;22.30;;
3941;SDS011;1985;48.592;8.850;2024-03-07T00:46:08;56.00;;;25.00;;
3941;SDS011;1985;48.592;8.850;2024-03-07T00:48:35;50.50;;;24.57;;
3941;SDS011;1985;48.592;8.850;2024-03-07T00:51:02;47.00;;;22.80;;
3941;SDS011;1985;48.592;8.850;2024-03-07T00:53:29;51.65;;;24.52;;
3941;SDS011;1985;48.592;8.850;2024-03-07T00:55:55;47.17;;;24.85;;
3941;SDS011;1985;48.592;8.850;2024-03-07T00:58:21;56.25;;;24.50;;
3941;SDS011;1985;48.592;8.850;2024-03-07T01:00:46;53.07;;;23.97;;
3941;SDS011;1985;48.592;8.850;2024-03-07T01:03:12;48.53;;;24.75;;
3941;SDS011;1985;48.592;8.850;2024-03-07T01:05:39;53.85;;;25.08;;
3941;SDS011;1985;48.592;8.850;2024-03-07T01:08:05;50.75;;;25.45;;
3941;SDS011;1985;48.592;8.850;2024-03-07T01:10:31;56.25;;;25.90;;
3941;SDS011;1985;48.592;8.850;2024-03-07T01:12:57;48.57;;;24.07;;
3941;SDS011;1985;48.592;8.850;2024-03-07T01:15:26;54.40;;;26.07;;
3941;SDS011;1985;48.592;8.850;2024-03-07T01:17:53;50.83;;;24.50;;
3941;SDS011;1985;48.592;8.850;2024-03-07T01:20:18;50.13;;;24.52;;
3941;SDS011;1985;48.592;8.850;2024-03-07T01:22:44;47.70;;;25.77;;
3941;SDS011;1985;48.592;8.850;2024-03-07T01:25:10;52.53;;;24.48;;
3941;SDS011;1985;48.592;8.850;2024-03-07T01:27:37;49.22;;;26.10;;
3941;SDS011;1985;48.592;8.850;2024-03-07T01:30:04;47.70;;;24.90;;
3941;SDS011;1985;48.592;8.850;2024-03-07T01:32:33;51.92;;;25.58;;
3941;SDS011;1985;48.592;8.850;2024-03-07T01:34:58;56.83;;;25.50;;
3941;SDS011;1985;48.592;8.850;2024-03-07T01:37:24;52.00;;;25.02;;
3941;SDS011;1985;48.592;8.850;2024-03-07T01:39:50;51.67;;;25.07;;
3941;SDS011;1985;48.592;8.850;2024-03-07T01:42:15;55.42;;;26.90;;
3941;SDS011;1985;48.592;8.850;2024-03-07T01:44:41;56.17;;;27.07;;
3941;SDS011;1985;48.592;8.850;2024-03-07T01:47:08;52.28;;;26.85;;
3941;SDS011;1985;48.592;8.850;2024-03-07T01:49:35;54.03;;;26.80;;
3941;SDS011;1985;48.592;8.850;2024-03-07T01:52:02;54.13;;;26.42;;
3941;SDS011;1985;48.592;8.850;2024-03-07T01:54:30;50.42;;;25.70;;
3941;SDS011;1985;48.592;8.850;2024-03-07T01:56:57;49.15;;;25.88;;
3941;SDS011;1985;48.592;8.850;2024-03-07T01:59:23;53.80;;;27.17;;
3941;SDS011;1985;48.592;8.850;2024-03-07T02:01:49;51.73;;;28.13;;
3941;SDS011;1985;48.592;8.850;2024-03-07T02:04:16;53.50;;;27.80;;
3941;SDS011;1985;48.592;8.850;2024-03-07T02:06:41;50.47;;;27.13;;
3941;SDS011;1985;48.592;8.850;2024-03-07T02:09:07;51.63;;;26.80;;
3941;SDS011;1985;48.592;8.850;2024-03-07T02:11:33;54.30;;;27.57;;
3941;SDS011;1985;48.592;8.850;2024-03-07T02:13:59;53.20;;;27.35;;
3941;SDS011;1985;48.592;8.850;2024-03-07T02:16:25;49.05;;;27.00;;
3941;SDS011;1985;48.592;8.850;2024-03-07T02:18:51;49.80;;;26.58;;
3941;SDS011;1985;48.592;8.850;2024-03-07T02:21:16;65.67;;;27.90;;
3941;SDS011;1985;48.592;8.850;2024-03-07T02:23:42;52.13;;;27.57;;
3941;SDS011;1985;48.592;8.850;2024-03-07T02:26:08;53.67;;;26.63;;
3941;SDS011;1985;48.592;8.850;2024-03-07T02:28:34;53.20;;;27.27;;
3941;SDS011;1985;48.592;8.850;2024-03-07T02:31:00;48.88;;;25.08;;
3941;SDS011;1985;48.592;8.850;2024-03-07T02:33:26;51.85;;;26.27;;
3941;SDS011;1985;48.592;8.850;2024-03-07T02:35:52;52.05;;;26.63;;
3941;SDS011;1985;48.592;8.850;2024-03-07T02:38:19;56.55;;;27.25;;
3941;SDS011;1985;48.592;8.850;2024-03-07T02:40:45;53.78;;;26.33;;
3941;SDS011;1985;48.592;8.850;2024-03-07T02:43:14;51.88;;;25.70;;
3941;SDS011;1985;48.592;8.850;2024-03-07T02:45:39;49.20;;;25.23;;
3941;SDS011;1985;48.592;8.850;2024-03-07T02:48:05;48.10;;;24.47;;
3941;SDS011;1985;48.592;8.850;2024-03-07T02:50:34;49.47;;;24.90;;
3941;SDS011;1985;48.592;8.850;2024-03-07T02:53:02;53.10;;;26.20;;
3941;SDS011;1985;48.592;8.850;2024-03-07T02:55:32;48.03;;;25.75;;
3941;SDS011;1985;48.592;8.850;2024-03-07T02:57:58;49.15;;;24.65;;
3941;SDS011;1985;48.592;8.850;2024-03-07T03:00:24;48.75;;;24.55;;
3941;SDS011;1985;48.592;8.850;2024-03-07T03:02:55;50.33;;;25.95;;
3941;SDS011;1985;48.592;8.850;2024-03-07T03:05:21;50.25;;;26.52;;
3941;SDS011;1985;48.592;8.850;2024-03-07T03:07:47;53.90;;;26.30;;
3941;SDS011;1985;48.592;8.850;2024-03-07T03:10:20;48.13;;;26.70;;
3941;SDS011;1985;48.592;8.850;2024-03-07T03:12:49;52.10;;;26.27;;
3941;SDS011;1985;48.592;8.850;2024-03-07T03:15:15;51.03;;;25.38;;
3941;SDS011;1985;48.592;8.850;2024-03-07T03:17:42;49.83;;;26.98;;
3941;SDS011;1985;48.592;8.850;2024-03-07T03:20:08;53.58;;;26.88;;
3941;SDS011;1985;48.592;8.850;2024-03-07T03:22:47;51.63;;;25.45;;
3941;SDS011;1985;48.592;8.850;2024-03-07T03:25:15;56.30;;;27.30;;
3941;SDS011;1985;48.592;8.850;2024-03-07T03:27:40;56.43;;;25.53;;
3941;SDS011;1985;48.592;8.850;2024-03-07T03:30:06;49.97;;;26.17;;
3941;SDS011;1985;48.592;8.850;2024-03-07T03:32:32;50.97;;;27.50;;
3941;SDS011;1985;48.592;8.850;2024-03-07T03:34:58;51.83;;;26.95;;
3941;SDS011;1985;48.592;8.850;2024-03-07T03:37:23;50.67;;;25.13;;
3941;SDS011;1985;48.592;8.850;2024-03-07T03:39:49;52.90;;;26.80;;
3941;SDS011;1985;48.592;8.850;2024-03-07T03:42:15;47.00;;;24.00;;
3941;SDS011;1985;48.592;8.850;2024-03-07T03:44:41;53.33;;;25.63;;
3941;SDS011;1985;48.592;8.850;2024-03-07T03:47:07;58.00;;;26.45;;
3941;SDS011;1985;48.592;8.850;2024-03-07T03:49:32;50.50;;;25.90;;
3941;SDS011;1985;48.592;8.850;2024-03-07T03:51:58;53.00;;;25.60;;
3941;SDS011;1985;48.592;8.850;2024-03-07T03:54:24;50.03;;;26.20;;
3941;SDS011;1985;48.592;8.850;2024-03-07T03:56:50;54.33;;;26.73;;
3941;SDS011;1985;48.592;8.850;2024-03-07T03:59:16;53.83;;;28.13;;
3941;SDS011;1985;48.592;8.850;2024-03-07T04:01:41;51.63;;;25.93;;
3941;SDS011;1985;48.592;8.850;2024-03-07T04:04:07;56.35;;;28.30;;
3941;SDS011;1985;48.592;8.850;2024-03-07T04:06:34;56.22;;;27.35;;
3941;SDS011;1985;48.592;8.850;2024-03-07T04:09:00;55.67;;;28.13;;
3941;SDS011;1985;48.592;8.850;2024-03-07T04:11:25;58.60;;;27.07;;
3941;SDS011;1985;48.592;8.850;2024-03-07T04:13:51;50.88;;;26.73;;
3941;SDS011;1985;48.592;8.850;2024-03-07T04:16:17;52.35;;;27.85;;
3941;SDS011;1985;48.592;8.850;2024-03-07T04:18:43;52.92;;;27.63;;
3941;SDS011;1985;48.592;8.850;2024-03-07T04:21:08;59.70;;;29.20;;
3941;SDS011;1985;48.592;8.850;2024-03-07T04:23:34;56.85;;;28.50;;
3941;SDS011;1985;48.592;8.850;2024-03-07T04:26:00;54.47;;;27.15;;
3941;SDS011;1985;48.592;8.850;2024-03-07T04:28:26;53.40;;;27.30;;
3941;SDS011;1985;48.592;8.850;2024-03-07T04:30:52;52.38;;;27.48;;
3941;SDS011;1985;48.592;8.850;2024-03-07T04:33:18;52.85;;;27.17;;
3941;SDS011;1985;48.592;8.850;2024-03-07T04:35:44;53.30;;;27.70;;
3941;SDS011;1985;48.592;8.850;2024-03-07T04:38:10;55.63;;;28.23;;
3941;SDS011;1985;48.592;8.850;2024-03-07T04:40:40;53.90;;;27.30;;
3941;SDS011;1985;48.592;8.850;2024-03-07T04:43:08;58.75;;;29.00;;
3941;SDS011;1985;48.592;8.850;2024-03-07T04:45:34;55.67;;;29.00;;
3941;SDS011;1985;48.592;8.850;2024-03-07T04:48:00;52.63;;;27.10;;
3941;SDS011;1985;48.592;8.850;2024-03-07T04:50:26;59.00;;;30.30;;
3941;SDS011;1985;48.592;8.850;2024-03-07T04:52:51;59.20;;;29.50;;
3941;SDS011;1985;48.592;8.850;2024-03-07T04:55:17;55.30;;;28.63;;
3941;SDS011;1985;48.592;8.850;2024-03-07T04:57:43;52.15;;;28.00;;
3941;SDS011;1985;48.592;8.850;2024-03-07T05:00:12;59.17;;;30.25;;
3941;SDS011;1985;48.592;8.850;2024-03-07T05:02:40;57.63;;;30.83;;
3941;SDS011;1985;48.592;8.850;2024-03-07T05:05:09;58.67;;;30.10;;
3941;SDS011;1985;48.592;8.850;2024-03-07T05:07:35;55.08;;;28.42;;
3941;SDS011;1985;48.592;8.850;2024-03-07T05:10:02;54.50;;;28.45;;
3941;SDS011;1985;48.592;8.850;2024-03-07T05:12:29;59.92;;;28.25;;
3941;SDS011;1985;48.592;8.850;2024-03-07T05:14:55;53.35;;;29.05;;
3941;SDS011;1985;48.592;8.850;2024-03-07T05:17:21;55.53;;;28.42;;
3941;SDS011;1985;48.592;8.850;2024-03-07T05:19:47;48.95;;;25.63;;
3941;SDS011;1985;48.592;8.850;2024-03-07T05:22:14;64.15;;;28.75;;
3941;SDS011;1985;48.592;8.850;2024-03-07T05:24:43;58.90;;;29.10;;
3941;SDS011;1985;48.592;8.850;2024-03-07T05:27:09;57.50;;;28.80;;
3941;SDS011;1985;48.592;8.850;2024-03-07T05:29:38;57.20;;;29.98;;
3941;SDS011;1985;48.592;8.850;2024-03-07T05:34:45;59.60;;;30.03;;
3941;SDS011;1985;48.592;8.850;2024-03-07T05:37:11;56.70;;;28.43;;
3941;SDS011;1985;48.592;8.850;2024-03-07T05:39:36;54.88;;;29.83;;
3941;SDS011;1985;48.592;8.850;2024-03-07T05:42:02;57.60;;;28.33;;
3941;SDS011;1985;48.592;8.850;2024-03-07T05:44:29;52.97;;;27.48;;
3941;SDS011;1985;48.592;8.850;2024-03-07T05:46:54;56.80;;;28.85;;
3941;SDS011;1985;48.592;8.850;2024-03-07T05:49:20;53.53;;;29.20;;
3941;SDS011;1985;48.592;8.850;2024-03-07T05:51:46;55.40;;;30.00;;
3941;SDS011;1985;48.592;8.850;2024-03-07T05:54:12;58.47;;;30.07;;
3941;SDS011;1985;48.592;8.850;2024-03-07T05:56:38;59.33;;;30.47;;
3941;SDS011;1985;48.592;8.850;2024-03-07T05:59:05;58.85;;;30.67;;
3941;SDS011;1985;48.592;8.850;2024-03-07T06:01:32;64.38;;;30.35;;
3941;SDS011;1985;48.592;8.850;2024-03-07T06:03:59;54.33;;;28.60;;
3941;SDS011;1985;48.592;8.850;2024-03-07T06:06:25;56.50;;;28.90;;
3941;SDS011;1985;48.592;8.850;2024-03-07T06:08:52;56.28;;;29.42;;
3941;SDS011;1985;48.592;8.850;2024-03-07T06:11:18;59.33;;;29.83;;
3941;SDS011;1985;48.592;8.850;2024-03-07T06:13:49;61.80;;;27.77;;
3941;SDS011;1985;48.592;8.850;2024-03-07T06:16:15;52.42;;;27.58;;
3941;SDS011;1985;48.592;8.850;2024-03-07T06:18:41;56.10;;;29.33;;
3941;SDS011;1985;48.592;8.850;2024-03-07T06:21:07;58.28;;;29.75;;
3941;SDS011;1985;48.592;8.850;2024-03-07T06:23:33;55.28;;;29.10;;
3941;SDS011;1985;48.592;8.850;2024-03-07T06:25:59;50.75;;;25.75;;
3941;SDS011;1985;48.592;8.850;2024-03-07T06:28:25;54.88;;;28.45;;
3941;SDS011;1985;48.592;8.850;2024-03-07T06:30:54;56.30;;;27.60;;
3941;SDS011;1985;48.592;8.850;2024-03-07T06:33:20;53.80;;;28.27;;
3941;SDS011;1985;48.592;8.850;2024-03-07T06:35:47;69.72;;;32.30;;
3941;SDS011;1985;48.592;8.850;2024-03-07T06:38:13;63.10;;;31.00;;
3941;SDS011;1985;48.592;8.850;2024-03-07T06:40:39;58.25;;;29.23;;
3941;SDS011;1985;48.592;8.850;2024-03-07T06:43:09;52.33;;;27.00;;
3941;SDS011;1985;48.592;8.850;2024-03-07T06:45:38;60.55;;;28.17;;
3941;SDS011;1985;48.592;8.850;2024-03-07T06:48:05;57.30;;;29.13;;
3941;SDS011;1985;48.592;8.850;2024-03-07T06:50:37;52.63;;;27.27;;
3941;SDS011;1985;48.592;8.850;2024-03-07T06:53:03;51.40;;;27.47;;
3941;SDS011;1985;48.592;8.850;2024-03-07T06:55:34;58.93;;;29.00;;
3941;SDS011;1985;48.592;8.850;2024-03-07T06:58:00;61.72;;;30.75;;
3941;SDS011;1985;48.592;8.850;2024-03-07T07:00:29;58.15;;;28.50;;
3941;SDS011;1985;48.592;8.850;2024-03-07T07:02:57;57.35;;;28.52;;
3941;SDS011;1985;48.592;8.850;2024-03-07T07:05:22;47.42;;;26.63;;
3941;SDS011;1985;48.592;8.850;2024-03-07T07:07:48;53.80;;;26.92;;
3941;SDS011;1985;48.592;8.850;2024-03-07T07:10:14;51.85;;;27.10;;
3941;SDS011;1985;48.592;8.850;2024-03-07T07:12:45;51.22;;;25.58;;
3941;SDS011;1985;48.592;8.850;2024-03-07T07:15:13;50.13;;;26.37;;
3941;SDS011;1985;48.592;8.850;2024-03-07T07:17:41;51.97;;;26.60;;
3941;SDS011;1985;48.592;8.850;2024-03-07T07:20:07;47.08;;;26.35;;
3941;SDS011;1985;48.592;8.850;2024-03-07T07:22:39;56.33;;;28.30;;
3941;SDS011;1985;48.592;8.850;2024-03-07T07:25:08;49.53;;;25.15;;
3941;SDS011;1985;48.592;8.850;2024-03-07T07:27:48;53.03;;;27.38;;
3941;SDS011;1985;48.592;8.850;2024-03-07T07:30:15;54.55;;;28.42;;
3941;SDS011;1985;48.592;8.850;2024-03-07T07:32:46;48.05;;;25.13;;
3941;SDS011;1985;48.592;8.850;2024-03-07T07:35:12;48.55;;;26.77;;
3941;SDS011;1985;48.592;8.850;2024-03-07T07:37:38;49.40;;;27.27;;
3941;SDS011;1985;48.592;8.850;2024-03-07T07:40:05;51.47;;;26.70;;
3941;SDS011;1985;48.592;8.850;2024-03-07T07:42:33;56.28;;;26.48;;
3941;SDS011;1985;48.592;8.850;2024-03-07T07:45:04;55.85;;;26.55;;
3941;SDS011;1985;48.592;8.850;2024-03-07T07:47:38;49.85;;;26.17;;
3941;SDS011;1985;48.592;8.850;2024-03-07T07:50:09;53.50;;;25.95;;
3941;SDS011;1985;48.592;8.850;2024-03-07T07:52:49;56.33;;;27.38;;
3941;SDS011;1985;48.592;8.850;2024-03-07T07:55:19;48.13;;;25.80;;
3941;SDS011;1985;48.592;8.850;2024-03-07T07:57:45;53.65;;;27.00;;
3941;SDS011;1985;48.592;8.850;2024-03-07T08:02:46;49.85;;;24.85;;
3941;SDS011;1985;48.592;8.850;2024-03-07T08:05:14;49.63;;;24.15;;
3941;SDS011;1985;48.592;8.850;2024-03-07T08:07:43;46.88;;;24.45;;
3941;SDS011;1985;48.592;8.850;2024-03-07T08:10:09;43.03;;;23.73;;
3941;SDS011;1985;48.592;8.850;2024-03-07T08:12:35;46.77;;;24.97;;
3941;SDS011;1985;48.592;8.850;2024-03-07T08:15:02;50.97;;;25.02;;
3941;SDS011;1985;48.592;8.850;2024-03-07T08:17:29;47.42;;;24.50;;
3941;SDS011;1985;48.592;8.850;2024-03-07T08:19:56;50.22;;;26.35;;
3941;SDS011;1985;48.592;8.850;2024-03-07T08:22:22;53.40;;;25.17;;
3941;SDS011;1985;48.592;8.850;2024-03-07T08:24:49;45.78;;;24.00;;
3941;SDS011;1985;48.592;8.850;2024-03-07T08:27:15;40.92;;;23.00;;
3941;SDS011;1985;48.592;8.850;2024-03-07T08:29:40;46.97;;;25.17;;
3941;SDS011;1985;48.592;8.850;2024-03-07T08:32:06;50.83;;;24.33;;
3941;SDS011;1985;48.592;8.850;2024-03-07T08:34:32;47.55;;;23.83;;
3941;SDS011;1985;48.592;8.850;2024-03-07T08:36:58;46.17;;;24.60;;
3941;SDS011;1985;48.592;8.850;2024-03-07T08:39:24;45.88;;;24.35;;
3941;SDS011;1985;48.592;8.850;2024-03-07T08:41:49;46.93;;;24.93;;
3941;SDS011;1985;48.592;8.850;2024-03-07T08:44:15;45.40;;;22.53;;
3941;SDS011;1985;48.592;8.850;2024-03-07T08:46:41;47.30;;;24.15;;
3941;SDS011;1985;48.592;8.850;2024-03-07T08:49:08;43.35;;;22.60;;
3941;SDS011;1985;48.592;8.850;2024-03-07T08:51:36;42.88;;;22.55;;
3941;SDS011;1985;48.592;8.850;2024-03-07T08:54:01;45.53;;;24.27;;
3941;SDS011;1985;48.592;8.850;2024-03-07T08:56:27;45.83;;;23.80;;
3941;SDS011;1985;48.592;8.850;2024-03-07T08:58:53;41.92;;;23.25;;
3941;SDS011;1985;48.592;8.850;2024-03-07T09:01:19;52.22;;;24.08;;
3941;SDS011;1985;48.592;8.850;2024-03-07T09:03:45;45.42;;;23.00;;
3941;SDS011;1985;48.592;8.850;2024-03-07T09:06:11;42.80;;;24.23;;
3941;SDS011;1985;48.592;8.850;2024-03-07T09:08:38;44.92;;;23.80;;
3941;SDS011;1985;48.592;8.850;2024-03-07T09:11:04;40.78;;;22.15;;
3941;SDS011;1985;48.592;8.850;2024-03-07T09:13:29;44.57;;;23.07;;
3941;SDS011;1985;48.592;8.850;2024-03-07T09:15:55;44.95;;;23.60;;
3941;SDS011;1985;48.592;8.850;2024-03-07T09:18:21;47.97;;;23.90;;
3941;SDS011;1985;48.592;8.850;2024-03-07T09:20:49;44.50;;;23.10;;
3941;SDS011;1985;48.592;8.850;2024-03-07T09:23:14;44.47;;;23.00;;
3941;SDS011;1985;48.592;8.850;2024-03-07T09:25:40;48.92;;;25.35;;
3941;SDS011;1985;48.592;8.850;2024-03-07T09:28:07;43.35;;;22.90;;
3941;SDS011;1985;48.592;8.850;2024-03-07T09:30:34;47.20;;;24.25;;
3941;SDS011;1985;48.592;8.850;2024-03-07T09:33:03;46.70;;;25.07;;
3941;SDS011;1985;48.592;8.850;2024-03-07T09:35:29;47.17;;;25.03;;
3941;SDS011;1985;48.592;8.850;2024-03-07T09:37:54;45.90;;;23.77;;
3941;SDS011;1985;48.592;8.850;2024-03-07T09:40:21;44.55;;;23.70;;
3941;SDS011;1985;48.592;8.850;2024-03-07T09:42:50;47.92;;;24.42;;
3941;SDS011;1985;48.592;8.850;2024-03-07T09:45:21;53.08;;;24.67;;
3941;SDS011;1985;48.592;8.850;2024-03-07T09:47:51;52.90;;;24.67;;
3941;SDS011;1985;48.592;8.850;2024-03-07T09:50:18;50.08;;;25.13;;
3941;SDS011;1985;48.592;8.850;2024-03-07T09:52:46;46.10;;;22.98;;
3941;SDS011;1985;48.592;8.850;2024-03-07T09:55:15;49.92;;;25.10;;
3941;SDS011;1985;48.592;8.850;2024-03-07T09:57:41;49.30;;;25.10;;
3941;SDS011;1985;48.592;8.850;2024-03-07T10:00:07;61.03;;;25.60;;
3941;SDS011;1985;48.592;8.850;2024-03-07T10:02:34;48.70;;;24.70;;
3941;SDS011;1985;48.592;8.850;2024-03-07T10:05:06;47.13;;;24.88;;
3941;SDS011;1985;48.592;8.850;2024-03-07T10:07:35;44.72;;;23.58;;
3941;SDS011;1985;48.592;8.850;2024-03-07T10:10:01;50.55;;;25.17;;
3941;SDS011;1985;48.592;8.850;2024-03-07T10:12:35;47.80;;;25.83;;
3941;SDS011;1985;48.592;8.850;2024-03-07T10:15:03;47.20;;;24.23;;
3941;SDS011;1985;48.592;8.850;2024-03-07T10:17:37;53.55;;;25.08;;
3941;SDS011;1985;48.592;8.850;2024-03-07T10:20:06;51.30;;;26.20;;
3941;SDS011;1985;48.592;8.850;2024-03-07T10:22:38;53.47;;;26.00;;
3941;SDS011;1985;48.592;8.850;2024-03-07T10:25:07;56.90;;;25.45;;
3941;SDS011;1985;48.592;8.850;2024-03-07T10:27:35;52.33;;;26.40;;
3941;SDS011;1985;48.592;8.850;2024-03-07T10:30:02;53.58;;;26.88;;
3941;SDS011;1985;48.592;8.850;2024-03-07T10:32:28;52.85;;;25.30;;
3941;SDS011;1985;48.592;8.850;2024-03-07T10:34:55;52.60;;;25.20;;
3941;SDS011;1985;48.592;8.850;2024-03-07T10:37:23;52.45;;;27.05;;
3941;SDS011;1985;48.592;8.850;2024-03-07T10:39:50;52.10;;;25.83;;
3941;SDS011;1985;48.592;8.850;2024-03-07T10:42:17;53.67;;;26.08;;
3941;SDS011;1985;48.592;8.850;2024-03-07T10:44:45;50.00;;;25.80;;
3941;SDS011;1985;48.592;8.850;2024-03-07T10:47:15;51.45;;;25.23;;
3941;SDS011;1985;48.592;8.850;2024-03-07T10:55:49;54.67;;;26.17;;
3941;SDS011;1985;48.592;8.850;2024-03-07T10:58:37;49.30;;;25.33;;
3941;SDS011;1985;48.592;8.850;2024-03-07T11:01:12;54.95;;;26.27;;
3941;SDS011;1985;48.592;8.850;2024-03-07T11:03:39;52.03;;;23.92;;
3941;SDS011;1985;48.592;8.850;2024-03-07T11:06:07;54.05;;;25.92;;
3941;SDS011;1985;48.592;8.850;2024-03-07T11:08:36;50.28;;;23.05;;
3941;SDS011;1985;48.592;8.850;2024-03-07T11:11:03;49.93;;;23.67;;
3941;SDS011;1985;48.592;8.850;2024-03-07T11:13:33;49.88;;;23.33;;
3941;SDS011;1985;48.592;8.850;2024-03-07T11:15:59;52.47;;;24.83;;
3941;SDS011;1985;48.592;8.850;2024-03-07T11:18:26;51.13;;;24.90;;
3941;SDS011;1985;48.592;8.850;2024-03-07T11:20:52;50.67;;;22.98;;
3941;SDS011;1985;48.592;8.850;2024-03-07T11:23:31;51.47;;;24.50;;
3941;SDS011;1985;48.592;8.850;2024-03-07T11:26:05;50.67;;;25.00;;
3941;SDS011;1985;48.592;8.850;2024-03-07T11:28:36;56.53;;;24.88;;
3941;SDS011;1985;48.592;8.850;2024-03-07T11:36:44;48.33;;;23.40;;
3941;SDS011;1985;48.592;8.850;2024-03-07T11:42:18;50.58;;;25.35;;
3941;SDS011;1985;48.592;8.850;2024-03-07T11:44:45;48.28;;;23.58;;
3941;SDS011;1985;48.592;8.850;2024-03-07T11:47:12;50.03;;;23.48;;
3941;SDS011;1985;48.592;8.850;2024-03-07T11:49:38;47.03;;;23.52;;
3941;SDS011;1985;48.592;8.850;2024-03-07T11:52:04;51.37;;;22.73;;
3941;SDS011;1985;48.592;8.850;2024-03-07T11:54:37;53.00;;;24.73;;
3941;SDS011;1985;48.592;8.850;2024-03-07T11:57:07;50.43;;;24.43;;
3941;SDS011;1985;48.592;8.850;2024-03-07T11:59:39;51.28;;;24.48;;
3941;SDS011;1985;48.592;8.850;2024-03-07T12:02:10;43.80;;;21.10;;
3941;SDS011;1985;48.592;8.850;2024-03-07T12:04:43;50.85;;;21.15;;
3941;SDS011;1985;48.592;8.850;2024-03-07T12:07:09;43.65;;;20.60;;
3941;SDS011;1985;48.592;8.850;2024-03-07T12:09:42;44.10;;;20.45;;
3941;SDS011;1985;48.592;8.850;2024-03-07T12:12:10;46.07;;;21.70;;
3941;SDS011;1985;48.592;8.850;2024-03-07T12:14:37;51.05;;;24.08;;
3941;SDS011;1985;48.592;8.850;2024-03-07T12:17:04;50.38;;;22.02;;
3941;SDS011;1985;48.592;8.850;2024-03-07T12:19:34;53.35;;;25.25;;
3941;SDS011;1985;48.592;8.850;2024-03-07T12:22:00;49.95;;;24.30;;
3941;SDS011;1985;48.592;8.850;2024-03-07T12:24:27;52.78;;;24.17;;
3941;SDS011;1985;48.592;8.850;2024-03-07T12:27:04;49.85;;;22.67;;
3941;SDS011;1985;48.592;8.850;2024-03-07T12:29:31;49.35;;;22.38;;
3941;SDS011;1985;48.592;8.850;2024-03-07T12:31:58;48.13;;;21.88;;
3941;SDS011;1985;48.592;8.850;2024-03-07T12:34:24;42.85;;;20.45;;
3941;SDS011;1985;48.592;8.850;2024-03-07T12:36:52;42.70;;;19.80;;
3941;SDS011;1985;48.592;8.850;2024-03-07T12:39:27;46.05;;;20.73;;
3941;SDS011;1985;48.592;8.850;2024-03-07T12:41:58;44.10;;;19.80;;
3941;SDS011;1985;48.592;8.850;2024-03-07T12:44:24;42.08;;;19.45;;
3941;SDS011;1985;48.592;8.850;2024-03-07T12:46:53;44.60;;;20.30;;
3941;SDS011;1985;48.592;8.850;2024-03-07T12:49:21;47.60;;;21.67;;
3941;SDS011;1985;48.592;8.850;2024-03-07T12:51:52;44.05;;;21.00;;
3941;SDS011;1985;48.592;8.850;2024-03-07T12:54:21;44.55;;;20.67;;
3941;SDS011;1985;48.592;8.850;2024-03-07T12:56:48;42.67;;;19.50;;
3941;SDS011;1985;48.592;8.850;2024-03-07T12:59:16;41.70;;;19.98;;
3941;SDS011;1985;48.592;8.850;2024-03-07T13:01:44;42.55;;;20.08;;
3941;SDS011;1985;48.592;8.850;2024-03-07T13:04:12;41.10;;;19.35;;
3941;SDS011;1985;48.592;8.850;2024-03-07T13:06:39;44.08;;;18.88;;
3941;SDS011;1985;48.592;8.850;2024-03-07T13:09:08;36.33;;;18.80;;
3941;SDS011;1985;48.592;8.850;2024-03-07T13:11:37;35.80;;;18.77;;
3941;SDS011;1985;48.592;8.850;2024-03-07T13:14:06;42.55;;;19.10;;
3941;SDS011;1985;48.592;8.850;2024-03-07T13:16:32;41.10;;;18.23;;
3941;SDS011;1985;48.592;8.850;2024-03-07T13:18:58;40.95;;;19.05;;
3941;SDS011;1985;48.592;8.850;2024-03-07T13:21:24;41.95;;;19.45;;
3941;SDS011;1985;48.592;8.850;2024-03-07T13:23:52;40.45;;;19.88;;
3941;SDS011;1985;48.592;8.850;2024-03-07T13:26:20;39.38;;;18.88;;
3941;SDS011;1985;48.592;8.850;2024-03-07T13:28:49;44.58;;;20.23;;
3941;SDS011;1985;48.592;8.850;2024-03-07T13:31:16;47.58;;;21.20;;
3941;SDS011;1985;48.592;8.850;2024-03-07T13:33:45;38.67;;;19.75;;
3941;SDS011;1985;48.592;8.850;2024-03-07T13:36:11;43.65;;;22.50;;
3941;SDS011;1985;48.592;8.850;2024-03-07T13:38:39;46.55;;;21.40;;
3941;SDS011;1985;48.592;8.850;2024-03-07T13:41:05;40.05;;;19.80;;
3941;SDS011;1985;48.592;8.850;2024-03-07T13:43:31;42.50;;;19.40;;
3941;SDS011;1985;48.592;8.850;2024-03-07T13:46:00;43.83;;;20.95;;
3941;SDS011;1985;48.592;8.850;2024-03-07T13:48:26;45.00;;;21.00;;
3941;SDS011;1985;48.592;8.850;2024-03-07T13:50:51;42.85;;;19.95;;
3941;SDS011;1985;48.592;8.850;2024-03-07T13:53:19;45.83;;;21.25;;
3941;SDS011;1985;48.592;8.850;2024-03-07T13:55:51;45.70;;;21.48;;
3941;SDS011;1985;48.592;8.850;2024-03-07T13:58:23;44.08;;;20.88;;
3941;SDS011;1985;48.592;8.850;2024-03-07T14:01:05;43.15;;;22.15;;
3941;SDS011;1985;48.592;8.850;2024-03-07T14:09:56;42.80;;;21.92;;
3941;SDS011;1985;48.592;8.850;2024-03-07T14:21:46;45.95;;;22.92;;
3941;SDS011;1985;48.592;8.850;2024-03-07T14:24:45;49.92;;;23.02;;
3941;SDS011;1985;48.592;8.850;2024-03-07T14:27:42;54.25;;;23.45;;
3941;SDS011;1985;48.592;8.850;2024-03-07T14:30:40;49.70;;;24.02;;
3941;SDS011;1985;48.592;8.850;2024-03-07T14:33:16;55.27;;;25.57;;
3941;SDS011;1985;48.592;8.850;2024-03-07T14:36:00;51.00;;;26.02;;
3941;SDS011;1985;48.592;8.850;2024-03-07T14:38:31;54.20;;;24.40;;
3941;SDS011;1985;48.592;8.850;2024-03-07T14:41:08;53.67;;;24.33;;
3941;SDS011;1985;48.592;8.850;2024-03-07T14:43:37;52.47;;;26.00;;
3941;SDS011;1985;48.592;8.850;2024-03-07T14:46:06;50.13;;;25.55;;
3941;SDS011;1985;48.592;8.850;2024-03-07T14:48:31;53.83;;;27.67;;
3941;SDS011;1985;48.592;8.850;2024-03-07T14:50:59;57.22;;;26.08;;
3941;SDS011;1985;48.592;8.850;2024-03-07T14:53:24;52.22;;;26.75;;
3941;SDS011;1985;48.592;8.850;2024-03-07T14:55:50;50.00;;;24.20;;
3941;SDS011;1985;48.592;8.850;2024-03-07T14:58:17;56.65;;;25.48;;
3941;SDS011;1985;48.592;8.850;2024-03-07T15:00:43;59.80;;;27.45;;
3941;SDS011;1985;48.592;8.850;2024-03-07T15:03:11;53.00;;;26.75;;
3941;SDS011;1985;48.592;8.850;2024-03-07T15:05:41;51.78;;;25.33;;
3941;SDS011;1985;48.592;8.850;2024-03-07T15:08:09;53.70;;;26.98;;
3941;SDS011;1985;48.592;8.850;2024-03-07T15:10:36;54.65;;;25.55;;
3941;SDS011;1985;48.592;8.850;2024-03-07T15:13:06;54.60;;;26.02;;
3941;SDS011;1985;48.592;8.850;2024-03-07T15:15:33;48.15;;;24.30;;
3941;SDS011;1985;48.592;8.850;2024-03-07T15:17:59;54.15;;;26.20;;
3941;SDS011;1985;48.592;8.850;2024-03-07T15:20:25;54.13;;;25.33;;
3941;SDS011;1985;48.592;8.850;2024-03-07T15:22:55;45.80;;;24.40;;
3941;SDS011;1985;48.592;8.850;2024-03-07T15:25:22;51.72;;;25.67;;
3941;SDS011;1985;48.592;8.850;2024-03-07T15:27:52;54.78;;;26.00;;